^^

Nearby METAR Reports

 

EGAC - Belfast Harbour, United Kingdom
Distance from station: W 8mi, 13km
Updated: 24/01/2020 20:20
Overcast
Overcast
 Wind from SW
Wind: SW 12 mph , 19 km/h
Temperature: 7°C
Wind Chill: 4°C
Dew Point: 6°C
Humidity: 93%
Barometer: 1018 hPa
Clouds: Overcast
Visibility: 6 miles , 10 km
Cloud details: Mostly cloudy 213 m
Overcast 305 m
2020/01/24 20:20 EGAC 242020Z AUTO 22010KT 9999 BKN007/// OVC010/// 07/06 Q1018
EGAA - Belfast/Aldergro, United Kingdom
Distance from station: W 22mi, 35km
Updated: 24/01/2020 20:20
Mostly cloudy
Mostly cloudy
 Wind from SSW
Wind: SSW 9 mph , 15 km/h
Temperature: 6°C
Wind Chill: 3°C
Dew Point: 6°C
Humidity: 100%
Barometer: 1018 hPa
Clouds: Mostly cloudy
Visibility: 5 miles , 8 km
Cloud details: Mostly cloudy 152 m
2020/01/24 20:20 EGAA 242020Z 20008KT 8000 BKN005 06/06 Q1018
 
EGNS - Isle Of Man/Rona, United Kingdom
Distance from station: SE 57mi, 91km
Updated: 24/01/2020 20:20
Overcast
Overcast
 Wind from SW
Wind: SW 10 mph , 17 km/h
Temperature: 8°C
Wind Chill: 5°C
Dew Point: 6°C
Humidity: 87%
Barometer: 1019 hPa
Clouds: Overcast
Visibility: 6 miles , 10 km
Cloud details: Overcast 274 m
2020/01/24 20:20 EGNS 242020Z 23009KT 9999 OVC009 08/06 Q1019 NOSIG
EGPK - Prestwick(Civ/Na, United Kingdom
Distance from station: NE 74mi, 119km
Updated: 24/01/2020 19:50
Mostly cloudy
Mostly cloudy
 Wind from S
Wind: S 7 mph , 11 km/h
Temperature: 8°C
Wind Chill: 6°C
Dew Point: 7°C
Humidity: 93%
Barometer: 1018 hPa
Clouds: Mostly cloudy
Visibility: 5 miles , 8 km
Cloud details: Partly cloudy 213 m
Mostly cloudy 457 m
2020/01/24 19:50 EGPK 241950Z 18006KT 8000 SCT007 BKN015 08/07 Q1018
 
EIDW - Dublin Airport, Ireland
Distance from station: SSW 87mi, 141km
Updated: 24/01/2020 20:00
Overcast
Overcast
 Wind from SSW
Wind: SSW 7 mph , 11 km/h
Temperature: 6°C
Wind Chill: 4°C
Dew Point: 4°C
Humidity: 87%
Barometer: 1020 hPa
Clouds: Overcast
Visibility: 6 miles , 10 km
Cloud details: Mostly cloudy 305 m
Overcast 396 m
2020/01/24 20:00 EIDW 242000Z 21006KT 180V260 9999 BKN010 OVC013 06/04 Q1020 NOSIG
EGPF - Glasgow Airport, United Kingdom
Distance from station: NNE 98mi, 158km
Updated: 24/01/2020 20:20
Mist, Overcast
Mist, Overcast
 Wind from SSW
Wind: SSW 14 mph , 22 km/h
Temperature: 8°C
Wind Chill: 4°C
Dew Point: 8°C
Humidity: 100%
Barometer: 1017 hPa
Summary: Mist
Clouds: Overcast
Visibility: 2 miles , 4 km
Cloud details: Mostly cloudy 152 m
Overcast 244 m
2020/01/24 20:20 EGPF 242020Z AUTO 21012KT 3700 BR BKN005 OVC008 08/08 Q1017